Hartland Four Corners, Vermont
Current Conditions -  °F | °C
As of 6:53 AM on Saturday 20 Dec 2014 (Local Time) from KLEB Reporting Station
Clear Clear  
Wind Chill: 13°   Ceiling: Unl
Heat Index: 13°   Visibility: 10mi
Dew Point:   Wind: 0mph
Humidity: 84%   Direction: NA
Pressure: 30.28"   Gusts: NA
Location:  43.55°N, 72.42°W
Report Text: KLEB 201153Z 00000KT 10SM CLR M11/M13 A3028 RMK AO2 SLP267 I1000 I6000 T11061128 11050 21106 53019
Loading
Personal Weather Stations






























Interactive Weather Map New forecast layout! Learn more

10-Day Weather Forecast

Advertisements
Track Severe Weather on mobile